createdAt,value
2023-05-05T00:01:34.382Z,2.80
2023-05-05T00:04:01.861Z,2.80
2023-05-05T00:06:29.149Z,2.80
2023-05-05T00:08:56.438Z,2.80
2023-05-05T00:11:23.948Z,2.70
2023-05-05T00:13:51.714Z,2.80
2023-05-05T00:16:19.190Z,2.70
2023-05-05T00:18:46.552Z,2.70
2023-05-05T00:21:13.762Z,2.60
2023-05-05T00:23:40.904Z,2.60
2023-05-05T00:26:08.144Z,2.50
2023-05-05T00:28:35.374Z,2.50
2023-05-05T00:31:02.678Z,2.40
2023-05-05T00:33:29.945Z,2.40
2023-05-05T00:35:57.216Z,2.30
2023-05-05T00:38:24.418Z,2.20
2023-05-05T00:40:51.535Z,2.20
2023-05-05T00:43:18.766Z,2.10
2023-05-05T00:45:48.152Z,2.00
2023-05-05T00:48:18.043Z,2.00
2023-05-05T00:50:45.526Z,1.90
2023-05-05T00:53:13.508Z,1.80
2023-05-05T00:55:40.970Z,1.80
2023-05-05T00:58:08.844Z,1.70
2023-05-05T01:00:36.102Z,1.70
2023-05-05T01:03:03.675Z,1.60
2023-05-05T01:05:51.579Z,1.50
2023-05-05T01:08:51.439Z,1.40
2023-05-05T01:11:31.352Z,1.40
2023-05-05T01:13:58.504Z,1.20
2023-05-05T01:16:29.319Z,1.20
2023-05-05T01:19:35.709Z,1.10
2023-05-05T01:22:06.924Z,1.10
2023-05-05T01:24:40.076Z,1.00
2023-05-05T01:27:31.481Z,1.00
2023-05-05T01:30:19.444Z,0.90
2023-05-05T01:32:55.482Z,0.80
2023-05-05T01:35:28.684Z,0.70
2023-05-05T01:38:19.460Z,0.70
2023-05-05T01:40:52.429Z,0.60
2023-05-05T01:43:21.431Z,0.50
2023-05-05T01:45:49.956Z,0.40
2023-05-05T01:48:19.884Z,0.40
2023-05-05T01:50:48.984Z,0.30
2023-05-05T01:53:18.410Z,0.20
2023-05-05T01:55:47.007Z,0.20
2023-05-05T01:58:16.363Z,0.10
2023-05-05T02:00:44.720Z,0.00
2023-05-05T02:03:15.003Z,0.00
2023-05-05T02:05:43.380Z,0.00
2023-05-05T02:08:11.779Z,-0.10
2023-05-05T02:10:43.055Z,-0.20
2023-05-05T02:13:15.721Z,-0.30
2023-05-05T02:15:44.851Z,-0.30
2023-05-05T02:18:14.414Z,-0.30
2023-05-05T02:20:41.887Z,-0.30
2023-05-05T02:23:09.691Z,-0.40
2023-05-05T02:25:42.602Z,-0.40
2023-05-05T02:28:35.472Z,-0.40
2023-05-05T02:31:05.728Z,-0.50
2023-05-05T02:33:34.750Z,-0.60
2023-05-05T02:36:11.763Z,-0.60
2023-05-05T02:38:44.256Z,-0.70
2023-05-05T02:41:16.816Z,-0.80
2023-05-05T02:43:45.654Z,-0.80
2023-05-05T02:46:13.027Z,-0.90
2023-05-05T02:48:40.317Z,-0.90
2023-05-05T02:51:08.044Z,-0.90
2023-05-05T02:53:35.850Z,-0.90
2023-05-05T02:56:27.165Z,-0.90
2023-05-05T02:59:08.016Z,-0.90
2023-05-05T03:02:03.533Z,-0.90
2023-05-05T03:04:38.889Z,-0.90
2023-05-05T03:07:34.917Z,-0.90
2023-05-05T03:10:14.220Z,-0.90
2023-05-05T03:12:56.688Z,-0.90
2023-05-05T03:15:28.553Z,-0.90
2023-05-05T03:17:58.513Z,-0.80
2023-05-05T03:20:26.522Z,-0.90
2023-05-05T03:22:55.030Z,-0.80
2023-05-05T03:25:22.534Z,-0.80
2023-05-05T03:27:49.763Z,-0.70
2023-05-05T03:30:16.953Z,-0.70
2023-05-05T03:32:44.224Z,-0.70
2023-05-05T03:35:12.221Z,-0.60
2023-05-05T03:37:39.424Z,-0.50
2023-05-05T03:40:07.414Z,-0.50
2023-05-05T03:42:34.721Z,-0.40
2023-05-05T03:45:01.880Z,-0.40
2023-05-05T03:47:29.168Z,-0.30
2023-05-05T03:49:56.505Z,-0.30
2023-05-05T03:52:23.697Z,-0.20
2023-05-05T03:54:50.862Z,-0.20
2023-05-05T03:57:18.125Z,-0.20
2023-05-05T03:59:45.344Z,-0.10
2023-05-05T04:02:12.608Z,-0.10
2023-05-05T04:04:39.944Z,0.00
2023-05-05T04:07:07.071Z,0.00
2023-05-05T04:09:34.363Z,0.10
2023-05-05T04:12:01.860Z,0.10
2023-05-05T04:14:29.220Z,0.20
2023-05-05T04:16:56.411Z,0.20
2023-05-05T04:19:23.656Z,0.30
2023-05-05T04:21:52.163Z,0.30
2023-05-05T04:24:23.311Z,0.30
2023-05-05T04:26:51.220Z,0.40
2023-05-05T04:29:18.550Z,0.40
2023-05-05T04:31:45.967Z,0.50
2023-05-05T04:34:13.165Z,0.60
2023-05-05T04:36:40.368Z,0.60
2023-05-05T04:39:08.871Z,0.70
2023-05-05T04:41:36.043Z,0.70
2023-05-05T04:44:03.229Z,0.80
2023-05-05T04:46:31.195Z,0.90
2023-05-05T04:48:59.441Z,1.00
2023-05-05T04:51:27.897Z,1.00
2023-05-05T04:53:56.040Z,1.10
2023-05-05T04:56:23.269Z,1.20
2023-05-05T04:58:50.915Z,1.30
2023-05-05T05:01:18.129Z,1.40
2023-05-05T05:03:45.341Z,1.40
2023-05-05T05:06:12.683Z,1.50
2023-05-05T05:08:39.856Z,1.60
2023-05-05T05:11:07.120Z,1.60
2023-05-05T05:13:34.578Z,1.70
2023-05-05T05:16:02.194Z,1.80
2023-05-05T05:18:29.373Z,1.90
2023-05-05T05:20:56.747Z,2.00
2023-05-05T05:23:23.979Z,2.10
2023-05-05T05:25:51.314Z,2.20
2023-05-05T05:28:18.502Z,2.20
2023-05-05T05:30:45.620Z,2.30
2023-05-05T05:33:12.903Z,2.40
2023-05-05T05:35:40.132Z,2.50
2023-05-05T05:38:07.359Z,2.50
2023-05-05T05:40:34.563Z,2.60
2023-05-05T05:43:03.037Z,2.70
2023-05-05T05:45:30.655Z,2.80
2023-05-05T05:47:57.824Z,2.90
2023-05-05T05:50:27.338Z,3.00
2023-05-05T05:52:55.142Z,3.10
2023-05-05T05:55:22.424Z,3.10
2023-05-05T05:57:49.490Z,3.30
2023-05-05T06:00:16.876Z,3.30
2023-05-05T06:02:44.107Z,3.40
2023-05-05T06:05:12.903Z,3.50
2023-05-05T06:07:40.058Z,3.60
2023-05-05T06:10:22.803Z,3.80
2023-05-05T06:12:53.363Z,3.90
2023-05-05T06:15:20.637Z,4.00
2023-05-05T06:17:47.840Z,4.10
2023-05-05T06:20:15.109Z,4.20
2023-05-05T06:22:42.251Z,4.30
2023-05-05T06:25:09.596Z,4.40
2023-05-05T06:27:36.777Z,4.50
2023-05-05T06:30:04.392Z,4.60
2023-05-05T06:32:31.547Z,4.60
2023-05-05T06:34:58.780Z,4.70
2023-05-05T06:37:25.873Z,4.80
2023-05-05T06:39:53.124Z,4.90
2023-05-05T06:42:20.240Z,5.00
2023-05-05T06:44:47.298Z,5.10
2023-05-05T06:47:14.420Z,5.20
2023-05-05T06:49:41.740Z,5.30
2023-05-05T06:52:08.869Z,5.40
2023-05-05T06:54:36.171Z,5.50
2023-05-05T06:57:03.336Z,5.60
2023-05-05T06:59:30.533Z,5.70
2023-05-05T07:01:57.660Z,5.80
2023-05-05T07:04:24.817Z,5.90
2023-05-05T07:06:52.498Z,6.00
2023-05-05T07:09:20.542Z,6.10
2023-05-05T07:11:47.951Z,6.20
2023-05-05T07:14:15.190Z,6.30
2023-05-05T07:16:42.517Z,6.50
2023-05-05T07:19:09.790Z,6.50
2023-05-05T07:21:37.141Z,6.40
2023-05-05T07:24:04.447Z,6.30
2023-05-05T07:26:32.525Z,6.20
2023-05-05T07:28:59.850Z,6.00
2023-05-05T07:31:27.085Z,6.00
2023-05-05T07:33:54.271Z,5.90
2023-05-05T07:36:21.560Z,6.00
2023-05-05T07:38:48.641Z,6.00
2023-05-05T07:41:16.607Z,6.10
2023-05-05T07:43:46.271Z,6.30
2023-05-05T07:46:14.106Z,6.70
2023-05-05T07:48:41.876Z,7.20
2023-05-05T07:51:09.555Z,7.30
2023-05-05T07:53:36.858Z,7.10
2023-05-05T07:56:04.163Z,6.90
2023-05-05T07:58:31.212Z,6.70
2023-05-05T08:00:58.403Z,6.50
2023-05-05T08:03:25.940Z,6.40
2023-05-05T08:05:56.635Z,6.20
2023-05-05T08:08:27.358Z,6.20
2023-05-05T08:10:54.664Z,6.10
2023-05-05T08:13:21.860Z,6.10
2023-05-05T08:15:49.012Z,6.20
2023-05-05T08:18:16.153Z,6.50
2023-05-05T08:20:43.392Z,6.90
2023-05-05T08:23:10.493Z,7.40
2023-05-05T08:25:37.503Z,7.80
2023-05-05T08:28:04.657Z,8.00
2023-05-05T08:30:31.813Z,8.20
2023-05-05T08:32:59.526Z,8.30
2023-05-05T08:35:26.705Z,8.30
2023-05-05T08:37:54.077Z,8.70
2023-05-05T08:40:29.455Z,9.10
2023-05-05T08:42:56.701Z,9.50
2023-05-05T08:45:23.834Z,9.90
2023-05-05T08:47:51.038Z,10.00
2023-05-05T08:50:19.311Z,9.40
2023-05-05T08:52:54.344Z,8.70
2023-05-05T08:55:26.612Z,8.10
2023-05-05T08:57:58.409Z,7.60
2023-05-05T09:00:27.372Z,7.20
2023-05-05T09:02:58.419Z,7.00
2023-05-05T09:05:27.301Z,6.80
2023-05-05T09:07:54.723Z,6.70
2023-05-05T09:10:22.188Z,6.90
2023-05-05T09:12:51.496Z,7.40
2023-05-05T09:15:18.796Z,8.00
2023-05-05T09:17:46.023Z,8.60
2023-05-05T09:20:14.794Z,9.10
2023-05-05T09:22:44.959Z,9.40
2023-05-05T09:25:18.803Z,9.70
2023-05-05T09:27:49.084Z,10.20
2023-05-05T09:30:18.716Z,10.40
2023-05-05T09:32:49.827Z,10.60
2023-05-05T09:35:18.121Z,10.40
2023-05-05T09:37:45.961Z,10.10
2023-05-05T09:40:18.217Z,9.70
2023-05-05T09:42:45.966Z,9.30
2023-05-05T09:45:18.936Z,8.80
2023-05-05T09:47:47.356Z,8.50
2023-05-05T09:50:21.761Z,8.30
2023-05-05T09:53:02.682Z,8.20
2023-05-05T09:55:33.724Z,8.40
2023-05-05T09:58:20.442Z,8.80
2023-05-05T10:00:47.941Z,9.30
2023-05-05T10:03:15.192Z,9.80
2023-05-05T10:05:52.903Z,10.30
2023-05-05T10:08:28.800Z,10.80
2023-05-05T10:10:57.638Z,11.10
2023-05-05T10:13:25.568Z,11.30
2023-05-05T10:15:57.423Z,11.40
2023-05-05T10:18:26.873Z,11.30
2023-05-05T10:20:58.500Z,11.20
2023-05-05T10:23:36.818Z,10.80
2023-05-05T10:26:07.224Z,10.30
2023-05-05T10:28:41.556Z,10.00
2023-05-05T10:31:25.796Z,9.70
2023-05-05T10:34:06.281Z,9.50
2023-05-05T10:36:34.449Z,9.40
2023-05-05T10:39:03.335Z,9.70
2023-05-05T10:41:32.334Z,9.90
2023-05-05T10:44:01.386Z,10.10
2023-05-05T10:46:29.975Z,10.40
2023-05-05T10:49:14.957Z,10.60
2023-05-05T10:51:57.935Z,10.70
2023-05-05T10:54:38.266Z,10.50
2023-05-05T10:57:07.233Z,10.20
2023-05-05T10:59:37.792Z,10.00
2023-05-05T11:02:28.096Z,9.80
2023-05-05T11:05:17.957Z,9.70
2023-05-05T11:07:47.102Z,9.40
2023-05-05T11:10:16.056Z,9.20
2023-05-05T11:12:55.530Z,9.20
2023-05-05T11:15:31.612Z,9.20
2023-05-05T11:18:05.648Z,9.30
2023-05-05T11:20:43.770Z,9.50
2023-05-05T11:23:11.025Z,9.60
2023-05-05T11:25:39.229Z,10.10
2023-05-05T11:28:15.037Z,10.70
2023-05-05T11:30:58.058Z,10.80
2023-05-05T11:33:32.669Z,10.80
2023-05-05T11:36:07.481Z,10.40
2023-05-05T11:38:59.717Z,10.20
2023-05-05T11:41:32.857Z,10.00
2023-05-05T11:44:20.042Z,10.00
2023-05-05T11:46:53.279Z,10.10
2023-05-05T11:49:39.702Z,10.00
2023-05-05T11:52:12.613Z,9.70
2023-05-05T11:54:41.656Z,9.70
2023-05-05T11:57:09.351Z,9.90
2023-05-05T12:00:10.263Z,9.90
2023-05-05T12:02:37.862Z,10.10
2023-05-05T12:05:05.770Z,10.70
2023-05-05T12:07:33.703Z,11.30
2023-05-05T12:10:01.618Z,11.60
2023-05-05T12:12:41.672Z,12.00
2023-05-05T12:15:09.895Z,12.80
2023-05-05T12:17:46.232Z,13.20
2023-05-05T12:20:13.747Z,13.30
2023-05-05T12:22:41.179Z,12.70
2023-05-05T12:25:09.293Z,12.10
2023-05-05T12:27:36.586Z,11.70
2023-05-05T12:30:17.808Z,11.30
2023-05-05T12:32:45.815Z,10.80
2023-05-05T12:35:13.759Z,10.70
2023-05-05T12:37:41.790Z,10.70
2023-05-05T12:40:45.766Z,10.80
2023-05-05T12:43:27.698Z,10.80
2023-05-05T12:46:08.182Z,10.70
2023-05-05T12:48:38.376Z,10.50
2023-05-05T12:51:23.566Z,10.20
2023-05-05T12:54:05.153Z,10.10
2023-05-05T12:56:34.738Z,10.10
2023-05-05T12:59:09.324Z,10.30
2023-05-05T13:01:38.009Z,10.80
2023-05-05T13:04:11.656Z,11.30
2023-05-05T13:06:40.680Z,11.70
2023-05-05T13:09:08.055Z,12.00
2023-05-05T13:11:39.408Z,12.20
2023-05-05T13:14:07.387Z,12.30
2023-05-05T13:16:34.575Z,12.90
2023-05-05T13:19:01.730Z,13.30
2023-05-05T13:21:28.722Z,13.70
2023-05-05T13:24:04.950Z,14.20
2023-05-05T13:26:39.490Z,14.40
2023-05-05T13:29:06.562Z,14.20
2023-05-05T13:31:33.694Z,13.80
2023-05-05T13:34:00.815Z,13.40
2023-05-05T13:36:27.898Z,13.00
2023-05-05T13:38:55.017Z,12.50
2023-05-05T13:41:22.068Z,12.00
2023-05-05T13:43:49.629Z,11.50
2023-05-05T13:46:19.987Z,11.30
2023-05-05T13:48:47.467Z,11.10
2023-05-05T13:51:16.056Z,10.90
2023-05-05T13:53:46.694Z,10.80
2023-05-05T13:56:14.645Z,10.60
2023-05-05T13:58:42.754Z,10.40
2023-05-05T14:01:11.288Z,10.00
2023-05-05T14:03:39.872Z,9.80
2023-05-05T14:06:09.336Z,9.60
2023-05-05T14:08:36.660Z,9.50
2023-05-05T14:11:03.916Z,9.60
2023-05-05T14:13:31.303Z,9.70
2023-05-05T14:15:58.642Z,9.70
2023-05-05T14:18:26.251Z,9.70
2023-05-05T14:20:53.524Z,9.70
2023-05-05T14:23:20.640Z,9.80
2023-05-05T14:25:47.881Z,9.80
2023-05-05T14:28:15.149Z,9.90
2023-05-05T14:30:42.247Z,10.20
2023-05-05T14:33:09.352Z,10.40
2023-05-05T14:35:36.446Z,10.90
2023-05-05T14:38:03.581Z,11.50
2023-05-05T14:40:31.546Z,11.90
2023-05-05T14:42:58.692Z,12.30
2023-05-05T14:45:26.588Z,12.30
2023-05-05T14:47:53.779Z,12.20
2023-05-05T14:50:20.976Z,12.30
2023-05-05T14:52:48.191Z,12.70
2023-05-05T14:55:15.235Z,13.00
2023-05-05T14:57:42.442Z,13.10
2023-05-05T15:00:11.170Z,13.10
2023-05-05T15:02:38.347Z,12.80
2023-05-05T15:05:06.970Z,12.50
2023-05-05T15:07:34.440Z,12.30
2023-05-05T15:10:01.634Z,12.10
2023-05-05T15:12:28.887Z,12.00
2023-05-05T15:14:56.092Z,11.80
2023-05-05T15:17:24.987Z,11.60
2023-05-05T15:19:52.167Z,11.50
2023-05-05T15:22:19.367Z,11.40
2023-05-05T15:24:46.701Z,11.40
2023-05-05T15:27:13.941Z,11.10
2023-05-05T15:29:41.118Z,10.90
2023-05-05T15:32:08.267Z,10.60
2023-05-05T15:34:37.518Z,10.40
2023-05-05T15:37:04.608Z,10.10
2023-05-05T15:39:31.705Z,10.00
2023-05-05T15:42:04.387Z,9.70
2023-05-05T15:44:32.224Z,9.60
2023-05-05T15:46:59.497Z,9.60
2023-05-05T15:49:26.587Z,9.60
2023-05-05T15:51:53.678Z,10.00
2023-05-05T15:54:20.964Z,10.60
2023-05-05T15:56:48.101Z,11.00
2023-05-05T15:59:15.196Z,11.50
2023-05-05T16:01:42.435Z,12.00
2023-05-05T16:04:09.576Z,12.10
2023-05-05T16:06:36.770Z,11.90
2023-05-05T16:09:04.562Z,11.50
2023-05-05T16:11:31.699Z,11.10
2023-05-05T16:13:58.752Z,10.70
2023-05-05T16:16:25.966Z,10.50
2023-05-05T16:18:53.135Z,10.40
2023-05-05T16:21:20.493Z,10.10
2023-05-05T16:23:47.710Z,9.80
2023-05-05T16:26:14.736Z,9.50
2023-05-05T16:28:41.965Z,9.20
2023-05-05T16:31:11.107Z,8.90
2023-05-05T16:33:41.007Z,8.60
2023-05-05T16:36:11.303Z,8.40
2023-05-05T16:38:39.286Z,8.30
2023-05-05T16:41:09.081Z,8.10
2023-05-05T16:43:37.410Z,8.00
2023-05-05T16:46:04.804Z,7.90
2023-05-05T16:48:32.086Z,7.80
2023-05-05T16:50:59.328Z,7.70
2023-05-05T16:53:26.505Z,7.70
2023-05-05T16:55:54.176Z,7.60
2023-05-05T16:58:22.957Z,7.50
2023-05-05T17:00:51.086Z,7.50
2023-05-05T17:03:19.168Z,7.40
2023-05-05T17:05:50.238Z,7.40
2023-05-05T17:08:17.768Z,7.60
2023-05-05T17:10:45.714Z,7.70
2023-05-05T17:13:14.112Z,7.80
2023-05-05T17:15:41.843Z,8.00
2023-05-05T17:18:09.459Z,8.00
2023-05-05T17:20:36.886Z,8.10
2023-05-05T17:23:04.144Z,8.00
2023-05-05T17:25:31.642Z,7.90
2023-05-05T17:27:58.849Z,7.70
2023-05-05T17:30:29.164Z,7.50
2023-05-05T17:32:57.115Z,7.30
2023-05-05T17:35:24.336Z,7.10
2023-05-05T17:37:51.667Z,6.90
2023-05-05T17:40:19.009Z,6.80
2023-05-05T17:42:46.263Z,6.60
2023-05-05T17:45:13.414Z,6.50
2023-05-05T17:47:40.604Z,6.40
2023-05-05T17:50:08.839Z,6.30
2023-05-05T17:52:36.023Z,6.30
2023-05-05T17:55:03.163Z,6.20
2023-05-05T17:57:30.415Z,6.10
2023-05-05T17:59:57.579Z,6.10
2023-05-05T18:02:25.227Z,5.90
2023-05-05T18:04:52.604Z,5.80
2023-05-05T18:07:19.683Z,5.70
2023-05-05T18:09:46.728Z,5.60
2023-05-05T18:12:13.793Z,5.50
2023-05-05T18:14:41.014Z,5.30
2023-05-05T18:17:08.245Z,5.20
2023-05-05T18:19:35.256Z,5.10
2023-05-05T18:22:02.381Z,5.00
2023-05-05T18:24:29.709Z,4.90
2023-05-05T18:26:56.825Z,4.80
2023-05-05T18:29:23.880Z,4.70
2023-05-05T18:31:53.214Z,4.60
2023-05-05T18:34:21.046Z,4.50
2023-05-05T18:36:48.536Z,4.40
2023-05-05T18:39:15.737Z,4.30
2023-05-05T18:41:42.823Z,4.20
2023-05-05T18:44:10.523Z,4.10
2023-05-05T18:46:37.729Z,4.00
2023-05-05T18:49:04.960Z,3.80
2023-05-05T18:51:32.568Z,3.70
2023-05-05T18:54:01.055Z,3.70
2023-05-05T18:56:28.330Z,3.60
2023-05-05T18:58:55.910Z,3.50
2023-05-05T19:01:23.722Z,3.40
2023-05-05T19:03:51.052Z,3.40
2023-05-05T19:06:18.499Z,3.40
2023-05-05T19:08:45.957Z,3.30
2023-05-05T19:11:14.955Z,3.30
2023-05-05T19:13:42.701Z,3.20
2023-05-05T19:16:11.478Z,3.20
2023-05-05T19:18:39.317Z,3.10
2023-05-05T19:21:06.654Z,3.10
2023-05-05T19:23:34.750Z,3.00
2023-05-05T19:26:03.757Z,3.00
2023-05-05T19:28:30.902Z,2.90
2023-05-05T19:30:58.144Z,2.90
2023-05-05T19:33:25.254Z,2.80
2023-05-05T19:35:52.444Z,2.80
2023-05-05T19:38:19.667Z,2.70
2023-05-05T19:40:46.968Z,2.70
2023-05-05T19:43:14.255Z,2.60
2023-05-05T19:45:41.424Z,2.50
2023-05-05T19:48:08.544Z,2.40
2023-05-05T19:50:35.667Z,2.30
2023-05-05T19:53:03.872Z,2.20
2023-05-05T19:55:31.211Z,2.10
2023-05-05T19:57:58.288Z,1.90
2023-05-05T20:00:25.449Z,1.90
2023-05-05T20:02:52.573Z,1.80
2023-05-05T20:05:19.850Z,1.80
2023-05-05T20:07:47.234Z,1.80
2023-05-05T20:10:14.638Z,1.80
2023-05-05T20:12:48.454Z,1.80
2023-05-05T20:15:19.715Z,1.90
2023-05-05T20:17:48.012Z,1.80
2023-05-05T20:20:21.160Z,1.90
2023-05-05T20:22:49.544Z,1.90
2023-05-05T20:25:17.091Z,1.90
2023-05-05T20:27:45.790Z,1.80
2023-05-05T20:30:13.701Z,1.80
2023-05-05T20:32:41.680Z,1.80
2023-05-05T20:35:09.744Z,1.80
2023-05-05T20:37:36.997Z,1.80
2023-05-05T20:40:05.501Z,1.80
2023-05-05T20:42:32.762Z,1.70
2023-05-05T20:45:01.479Z,1.70
2023-05-05T20:47:28.766Z,1.70
2023-05-05T20:49:56.436Z,1.70
2023-05-05T20:52:23.668Z,1.60
2023-05-05T20:54:50.961Z,1.60
2023-05-05T20:57:18.141Z,1.60
2023-05-05T20:59:45.295Z,1.60
2023-05-05T21:02:12.607Z,1.60
2023-05-05T21:04:39.966Z,1.50
2023-05-05T21:07:07.139Z,1.50
2023-05-05T21:09:36.984Z,1.50
2023-05-05T21:12:04.313Z,1.40
2023-05-05T21:14:31.564Z,1.40
2023-05-05T21:16:58.855Z,1.40
2023-05-05T21:19:26.134Z,1.40
2023-05-05T21:21:53.957Z,1.30
2023-05-05T21:24:21.323Z,1.30
2023-05-05T21:26:48.453Z,1.30
2023-05-05T21:29:15.647Z,1.20
2023-05-05T21:31:42.945Z,1.10
2023-05-05T21:34:10.029Z,1.10
2023-05-05T21:36:38.674Z,1.00
2023-05-05T21:39:05.878Z,1.00
2023-05-05T21:41:33.065Z,1.00
2023-05-05T21:44:00.383Z,0.90
2023-05-05T21:46:27.657Z,0.80
2023-05-05T21:48:54.882Z,0.80
2023-05-05T21:51:23.723Z,0.80
2023-05-05T21:53:50.969Z,0.70
2023-05-05T21:56:18.098Z,0.70
2023-05-05T21:58:45.278Z,0.60
2023-05-05T22:01:12.832Z,0.60
2023-05-05T22:03:40.224Z,0.50
2023-05-05T22:06:07.442Z,0.50
2023-05-05T22:08:35.080Z,0.50
2023-05-05T22:11:02.292Z,0.40
2023-05-05T22:13:29.585Z,0.30
2023-05-05T22:15:56.790Z,0.30
2023-05-05T22:18:24.078Z,0.20
2023-05-05T22:20:51.652Z,0.10
2023-05-05T22:23:18.807Z,0.10
2023-05-05T22:25:46.829Z,0.00
2023-05-05T22:28:14.051Z,0.00
2023-05-05T22:30:41.607Z,-0.10
2023-05-05T22:33:09.280Z,-0.10
2023-05-05T22:35:37.768Z,-0.20
2023-05-05T22:38:05.577Z,-0.20
2023-05-05T22:40:32.989Z,-0.30
2023-05-05T22:43:00.216Z,-0.40
2023-05-05T22:45:27.561Z,-0.40
2023-05-05T22:47:55.749Z,-0.50
2023-05-05T22:50:23.132Z,-0.60
2023-05-05T22:52:50.386Z,-0.70
2023-05-05T22:55:17.767Z,-0.70
2023-05-05T22:57:44.994Z,-0.80
2023-05-05T23:00:12.823Z,-0.80
2023-05-05T23:02:41.061Z,-0.80
2023-05-05T23:05:09.045Z,-0.90
2023-05-05T23:07:36.452Z,-0.90
2023-05-05T23:10:04.538Z,-0.90
2023-05-05T23:12:31.866Z,-0.90
2023-05-05T23:14:59.129Z,-0.90
2023-05-05T23:17:26.374Z,-0.90
2023-05-05T23:19:53.700Z,-0.90
2023-05-05T23:22:20.876Z,-1.00
2023-05-05T23:24:48.016Z,-1.00
2023-05-05T23:27:15.222Z,-1.10
2023-05-05T23:29:42.416Z,-1.20
2023-05-05T23:32:09.680Z,-1.20
2023-05-05T23:34:36.989Z,-1.30
2023-05-05T23:37:06.179Z,-1.30
2023-05-05T23:39:34.856Z,-1.30
2023-05-05T23:42:02.074Z,-1.40
2023-05-05T23:44:29.230Z,-1.40
2023-05-05T23:46:56.399Z,-1.40
2023-05-05T23:49:25.122Z,-1.50
2023-05-05T23:51:52.937Z,-1.50
2023-05-05T23:54:20.149Z,-1.50
2023-05-05T23:56:50.173Z,-1.50
2023-05-05T23:59:17.434Z,-1.60
